createdAt,value
2019-05-23T00:00:38.071Z,14.1
2019-05-23T00:01:39.451Z,13.9
2019-05-23T00:02:40.846Z,13.9
2019-05-23T00:03:42.242Z,14.0
2019-05-23T00:04:43.632Z,14.0
2019-05-23T00:05:45.048Z,14.0
2019-05-23T00:06:46.436Z,13.9
2019-05-23T00:07:47.852Z,14.0
2019-05-23T00:08:49.315Z,13.9
2019-05-23T00:09:50.752Z,13.9
2019-05-23T00:10:52.908Z,13.8
2019-05-23T00:11:54.296Z,13.8
2019-05-23T00:12:55.693Z,13.8
2019-05-23T00:13:57.091Z,13.8
2019-05-23T00:14:58.543Z,13.8
2019-05-23T00:15:59.930Z,13.7
2019-05-23T00:17:01.315Z,13.8
2019-05-23T00:18:02.708Z,13.8
2019-05-23T00:19:04.093Z,13.8
2019-05-23T00:20:05.485Z,13.7
2019-05-23T00:21:07.084Z,13.7
2019-05-23T00:22:08.479Z,13.7
2019-05-23T00:23:09.865Z,13.8
2019-05-23T00:24:11.256Z,13.7
2019-05-23T00:25:12.645Z,13.6
2019-05-23T00:26:14.042Z,13.6
2019-05-23T00:27:15.431Z,13.6
2019-05-23T00:28:16.822Z,13.5
2019-05-23T00:29:18.208Z,13.6
2019-05-23T00:30:19.594Z,13.5
2019-05-23T00:31:21.024Z,13.4
2019-05-23T00:32:22.415Z,13.5
2019-05-23T00:33:23.807Z,13.5
2019-05-23T00:34:25.217Z,13.4
2019-05-23T00:35:26.606Z,13.4
2019-05-23T00:36:28.002Z,13.4
2019-05-23T00:37:29.388Z,13.3
2019-05-23T00:38:30.832Z,13.3
2019-05-23T00:39:32.156Z,13.4
2019-05-23T00:40:33.532Z,13.3
2019-05-23T00:41:34.928Z,13.2
2019-05-23T00:42:36.370Z,13.2
2019-05-23T00:43:37.790Z,13.2
2019-05-23T00:44:39.169Z,13.2
2019-05-23T00:45:40.575Z,13.3
2019-05-23T00:46:42.025Z,13.2
2019-05-23T00:47:43.416Z,13.2
2019-05-23T00:48:44.815Z,13.2
2019-05-23T00:49:46.200Z,13.2
2019-05-23T00:50:47.589Z,13.2
2019-05-23T00:51:48.981Z,13.2
2019-05-23T00:52:50.367Z,13.2
2019-05-23T00:53:51.755Z,13.2
2019-05-23T00:54:53.156Z,13.2
2019-05-23T00:55:54.593Z,13.2
2019-05-23T00:56:55.898Z,13.2
2019-05-23T00:57:57.310Z,13.2
2019-05-23T00:58:58.699Z,13.2
2019-05-23T01:00:00.087Z,13.2
2019-05-23T01:01:01.483Z,13.1
2019-05-23T01:02:02.894Z,13.0
2019-05-23T01:03:04.283Z,13.0
2019-05-23T01:04:05.680Z,13.1
2019-05-23T01:05:07.080Z,13.1
2019-05-23T01:06:08.468Z,13.0
2019-05-23T01:07:09.852Z,13.0
2019-05-23T01:08:11.299Z,13.0
2019-05-23T01:09:12.730Z,13.0
2019-05-23T01:10:14.124Z,13.0
2019-05-23T01:11:15.508Z,12.9
2019-05-23T01:12:16.897Z,12.9
2019-05-23T01:13:18.300Z,13.0
2019-05-23T01:14:19.849Z,12.9
2019-05-23T01:15:21.265Z,13.0
2019-05-23T01:16:22.654Z,12.9
2019-05-23T01:17:24.042Z,12.9
2019-05-23T01:18:25.438Z,12.8
2019-05-23T01:19:26.836Z,12.8
2019-05-23T01:20:28.839Z,12.9
2019-05-23T01:21:30.236Z,12.8
2019-05-23T01:22:31.618Z,12.7
2019-05-23T01:23:33.008Z,12.8
2019-05-23T01:24:34.501Z,12.7
2019-05-23T01:25:35.841Z,12.8
2019-05-23T01:26:37.230Z,12.7
2019-05-23T01:27:38.620Z,12.7
2019-05-23T01:28:40.011Z,12.7
2019-05-23T01:29:41.404Z,12.7
2019-05-23T01:30:42.805Z,12.6
2019-05-23T01:31:44.227Z,12.6
2019-05-23T01:32:45.862Z,12.6
2019-05-23T01:33:47.637Z,12.6
2019-05-23T01:34:48.982Z,12.6
2019-05-23T01:35:50.390Z,12.6
2019-05-23T01:36:51.775Z,12.6
2019-05-23T01:37:53.164Z,12.6
2019-05-23T01:38:54.558Z,12.6
2019-05-23T01:39:56.009Z,12.5
2019-05-23T01:40:57.389Z,12.5
2019-05-23T01:41:58.784Z,12.5
2019-05-23T01:43:00.166Z,12.5
2019-05-23T01:44:01.567Z,12.5
2019-05-23T01:45:02.945Z,12.5
2019-05-23T01:46:04.338Z,12.5
2019-05-23T01:47:05.727Z,12.4
2019-05-23T01:48:07.115Z,12.5
2019-05-23T01:49:08.506Z,12.4
2019-05-23T01:50:10.021Z,12.4
2019-05-23T01:51:11.255Z,12.4
2019-05-23T01:52:12.677Z,12.4
2019-05-23T01:53:14.070Z,12.3
2019-05-23T01:54:15.459Z,12.3
2019-05-23T01:55:16.852Z,12.3
2019-05-23T01:56:18.237Z,12.3
2019-05-23T01:57:19.627Z,12.3
2019-05-23T01:58:21.025Z,12.4
2019-05-23T01:59:22.415Z,12.3
2019-05-23T02:00:23.803Z,12.3
2019-05-23T02:01:25.210Z,12.3
2019-05-23T02:02:26.581Z,12.2
2019-05-23T02:03:28.027Z,12.3
2019-05-23T02:04:29.418Z,12.2
2019-05-23T02:05:31.008Z,12.2
2019-05-23T02:06:32.632Z,12.2
2019-05-23T02:07:34.021Z,12.2
2019-05-23T02:08:35.407Z,12.2
2019-05-23T02:09:36.799Z,12.2
2019-05-23T02:10:38.184Z,12.2
2019-05-23T02:11:39.575Z,12.1
2019-05-23T02:12:40.965Z,12.1
2019-05-23T02:13:42.354Z,12.2
2019-05-23T02:14:43.747Z,12.1
2019-05-23T02:15:45.152Z,12.1
2019-05-23T02:16:46.536Z,12.0
2019-05-23T02:17:47.930Z,12.0
2019-05-23T02:18:49.321Z,12.0
2019-05-23T02:19:50.714Z,12.0
2019-05-23T02:20:52.104Z,11.9
2019-05-23T02:21:53.515Z,12.0
2019-05-23T02:22:55.068Z,12.0
2019-05-23T02:23:56.424Z,11.9
2019-05-23T02:24:57.818Z,11.9
2019-05-23T02:25:59.209Z,12.0
2019-05-23T02:27:00.638Z,11.8
2019-05-23T02:28:02.074Z,12.0
2019-05-23T02:29:03.466Z,11.9
2019-05-23T02:30:04.853Z,11.9
2019-05-23T02:31:06.238Z,11.9
2019-05-23T02:32:07.631Z,11.9
2019-05-23T02:33:09.023Z,11.8
2019-05-23T02:34:10.409Z,11.9
2019-05-23T02:35:11.800Z,11.9
2019-05-23T02:36:13.195Z,11.9
2019-05-23T02:37:14.577Z,11.8
2019-05-23T02:38:15.996Z,11.8
2019-05-23T02:39:17.384Z,11.8
2019-05-23T02:40:18.821Z,11.8
2019-05-23T02:41:20.209Z,11.8
2019-05-23T02:42:21.610Z,11.7
2019-05-23T02:43:22.989Z,11.7
2019-05-23T02:44:24.383Z,11.7
2019-05-23T02:45:25.798Z,11.7
2019-05-23T02:46:27.185Z,11.7
2019-05-23T02:47:28.578Z,11.7
2019-05-23T02:48:29.969Z,11.7
2019-05-23T02:49:31.367Z,11.8
2019-05-23T02:50:32.758Z,11.8
2019-05-23T02:51:34.146Z,11.8
2019-05-23T02:52:35.535Z,11.8
2019-05-23T02:53:36.922Z,11.7
2019-05-23T02:54:38.315Z,11.7
2019-05-23T02:55:39.707Z,11.7
2019-05-23T02:56:41.096Z,11.7
2019-05-23T02:57:42.498Z,11.7
2019-05-23T02:58:43.884Z,11.8
2019-05-23T02:59:45.569Z,11.6
2019-05-23T03:00:54.320Z,11.7
2019-05-23T03:01:48.262Z,11.7
2019-05-23T03:02:49.648Z,11.6
2019-05-23T03:03:51.039Z,11.6
2019-05-23T03:04:52.428Z,11.6
2019-05-23T03:05:53.828Z,11.7
2019-05-23T03:06:55.241Z,11.6
2019-05-23T03:07:56.628Z,11.7
2019-05-23T03:08:58.017Z,11.6
2019-05-23T03:09:59.449Z,11.6
2019-05-23T03:11:00.840Z,11.6
2019-05-23T03:12:02.240Z,11.6
2019-05-23T03:13:03.620Z,11.6
2019-05-23T03:14:05.006Z,11.6
2019-05-23T03:15:06.394Z,11.6
2019-05-23T03:16:07.788Z,11.6
2019-05-23T03:17:09.173Z,11.6
2019-05-23T03:18:10.564Z,11.5
2019-05-23T03:19:11.953Z,11.6
2019-05-23T03:20:13.339Z,11.5
2019-05-23T03:21:14.750Z,11.5
2019-05-23T03:22:16.159Z,11.5
2019-05-23T03:23:17.546Z,11.4
2019-05-23T03:24:18.935Z,11.5
2019-05-23T03:25:20.326Z,11.4
2019-05-23T03:26:21.717Z,11.4
2019-05-23T03:27:23.101Z,11.3
2019-05-23T03:28:24.488Z,11.3
2019-05-23T03:29:25.881Z,11.3
2019-05-23T03:30:27.267Z,11.3
2019-05-23T03:31:31.936Z,11.3
2019-05-23T03:32:37.488Z,11.3
2019-05-23T03:33:31.468Z,11.3
2019-05-23T03:34:32.859Z,11.3
2019-05-23T03:35:34.248Z,11.3
2019-05-23T03:36:35.645Z,11.3
2019-05-23T03:37:37.037Z,11.3
2019-05-23T03:38:38.432Z,11.2
2019-05-23T03:39:39.821Z,11.2
2019-05-23T03:40:41.231Z,11.3
2019-05-23T03:41:42.570Z,11.2
2019-05-23T03:42:43.958Z,11.2
2019-05-23T03:43:45.371Z,11.2
2019-05-23T03:44:46.772Z,11.1
2019-05-23T03:45:50.561Z,11.1
2019-05-23T03:46:51.528Z,11.2
2019-05-23T03:47:54.123Z,11.2
2019-05-23T03:48:55.845Z,11.3
2019-05-23T03:49:58.102Z,11.2
2019-05-23T03:50:59.598Z,11.2
2019-05-23T03:52:03.884Z,11.1
2019-05-23T03:53:05.336Z,11.2
2019-05-23T03:54:06.871Z,11.2
2019-05-23T03:55:08.278Z,11.1
2019-05-23T03:56:09.678Z,11.2
2019-05-23T03:57:11.068Z,11.1
2019-05-23T03:58:12.552Z,11.2
2019-05-23T03:59:13.979Z,11.1
2019-05-23T04:00:15.372Z,11.0
2019-05-23T04:01:16.762Z,11.2
2019-05-23T04:02:18.204Z,11.1
2019-05-23T04:03:19.593Z,11.1
2019-05-23T04:04:20.979Z,11.1
2019-05-23T04:05:22.412Z,11.1
2019-05-23T04:06:23.789Z,11.1
2019-05-23T04:07:25.181Z,11.1
2019-05-23T04:08:26.605Z,11.1
2019-05-23T04:09:28.057Z,11.1
2019-05-23T04:10:29.430Z,11.1
2019-05-23T04:11:30.825Z,11.0
2019-05-23T04:12:32.223Z,11.2
2019-05-23T04:13:33.649Z,11.1
2019-05-23T04:14:35.039Z,11.2
2019-05-23T04:15:36.456Z,11.1
2019-05-23T04:16:37.893Z,11.2
2019-05-23T04:17:39.284Z,11.2
2019-05-23T04:18:40.681Z,11.1
2019-05-23T04:19:42.070Z,11.0
2019-05-23T04:20:43.467Z,11.2
2019-05-23T04:21:44.886Z,11.2
2019-05-23T04:22:46.296Z,11.2
2019-05-23T04:23:47.689Z,11.2
2019-05-23T04:24:49.083Z,11.3
2019-05-23T04:25:50.551Z,11.2
2019-05-23T04:26:51.945Z,11.2
2019-05-23T04:27:53.367Z,11.2
2019-05-23T04:28:54.762Z,11.2
2019-05-23T04:29:56.158Z,11.2
2019-05-23T04:30:57.550Z,11.3
2019-05-23T04:32:07.970Z,11.3
2019-05-23T04:33:00.320Z,11.3
2019-05-23T04:34:01.902Z,11.3
2019-05-23T04:35:03.414Z,11.3
2019-05-23T04:36:04.809Z,11.3
2019-05-23T04:37:06.200Z,11.4
2019-05-23T04:38:07.595Z,11.5
2019-05-23T04:39:08.984Z,11.5
2019-05-23T04:40:10.383Z,11.5
2019-05-23T04:41:11.777Z,11.6
2019-05-23T04:42:13.172Z,11.6
2019-05-23T04:43:14.591Z,11.5
2019-05-23T04:44:15.966Z,11.5
2019-05-23T04:45:17.426Z,11.6
2019-05-23T04:46:18.813Z,11.6
2019-05-23T04:47:20.208Z,11.7
2019-05-23T04:48:21.630Z,11.7
2019-05-23T04:49:23.021Z,11.7
2019-05-23T04:50:24.459Z,11.7
2019-05-23T04:51:25.831Z,11.7
2019-05-23T04:52:27.299Z,11.7
2019-05-23T04:53:28.586Z,11.8
2019-05-23T04:54:29.981Z,11.8
2019-05-23T04:55:31.395Z,11.8
2019-05-23T04:56:32.789Z,11.9
2019-05-23T04:57:34.183Z,11.9
2019-05-23T04:58:35.658Z,11.9
2019-05-23T04:59:37.056Z,11.9
2019-05-23T05:00:38.448Z,12.1
2019-05-23T05:01:39.838Z,12.0
2019-05-23T05:02:41.233Z,12.0
2019-05-23T05:03:42.630Z,12.0
2019-05-23T05:04:44.037Z,12.1
2019-05-23T05:05:45.424Z,12.1
2019-05-23T05:06:46.817Z,12.1
2019-05-23T05:07:48.245Z,12.1
2019-05-23T05:08:49.637Z,12.1
2019-05-23T05:09:51.049Z,12.1
2019-05-23T05:10:52.442Z,12.3
2019-05-23T05:11:53.856Z,12.3
2019-05-23T05:12:55.252Z,12.3
2019-05-23T05:13:56.724Z,12.3
2019-05-23T05:14:58.115Z,12.4
2019-05-23T05:15:59.517Z,12.4
2019-05-23T05:17:00.964Z,12.5
2019-05-23T05:18:02.266Z,12.4
2019-05-23T05:19:03.657Z,12.5
2019-05-23T05:20:05.053Z,12.6
2019-05-23T05:21:06.447Z,12.5
2019-05-23T05:22:07.834Z,12.7
2019-05-23T05:23:09.255Z,12.8
2019-05-23T05:24:10.648Z,12.7
2019-05-23T05:25:12.052Z,12.8
2019-05-23T05:26:13.510Z,12.8
2019-05-23T05:27:15.112Z,12.9
2019-05-23T05:28:16.503Z,12.8
2019-05-23T05:29:17.917Z,12.9
2019-05-23T05:30:19.321Z,12.9
2019-05-23T05:31:20.727Z,13.0
2019-05-23T05:32:22.112Z,13.0
2019-05-23T05:33:23.590Z,13.1
2019-05-23T05:34:24.877Z,13.2
2019-05-23T05:35:26.275Z,13.2
2019-05-23T05:36:27.823Z,13.2
2019-05-23T05:37:29.227Z,13.2
2019-05-23T05:38:30.638Z,13.3
2019-05-23T05:39:32.020Z,13.4
2019-05-23T05:40:33.421Z,13.3
2019-05-23T05:41:34.851Z,13.4
2019-05-23T05:42:36.247Z,13.4
2019-05-23T05:43:37.637Z,13.5
2019-05-23T05:44:39.029Z,13.5
2019-05-23T05:45:40.459Z,13.4
2019-05-23T05:46:42.547Z,13.5
2019-05-23T05:47:43.949Z,13.6
2019-05-23T05:48:45.362Z,13.6
2019-05-23T05:49:46.743Z,13.6
2019-05-23T05:50:48.139Z,13.7
2019-05-23T05:51:49.534Z,13.7
2019-05-23T05:52:50.929Z,13.8
2019-05-23T05:53:52.328Z,13.9
2019-05-23T05:54:53.743Z,13.9
2019-05-23T05:55:55.140Z,14.0
2019-05-23T05:56:56.532Z,13.9
2019-05-23T05:57:57.921Z,14.0
2019-05-23T05:58:59.320Z,13.9
2019-05-23T06:00:00.724Z,14.0
2019-05-23T06:01:02.144Z,14.1
2019-05-23T06:02:03.524Z,14.1
2019-05-23T06:03:05.776Z,14.1
2019-05-23T06:04:06.298Z,14.2
2019-05-23T06:05:07.708Z,14.3
2019-05-23T06:06:09.104Z,14.3
2019-05-23T06:07:10.508Z,14.3
2019-05-23T06:08:11.901Z,14.3
2019-05-23T06:09:13.295Z,14.4
2019-05-23T06:10:14.684Z,14.3
2019-05-23T06:11:16.119Z,14.5
2019-05-23T06:12:17.507Z,14.5
2019-05-23T06:13:18.898Z,14.5
2019-05-23T06:14:20.303Z,14.5
2019-05-23T06:15:21.707Z,14.6
2019-05-23T06:16:23.129Z,14.7
2019-05-23T06:17:24.605Z,14.8
2019-05-23T06:18:26.083Z,14.7
2019-05-23T06:19:27.474Z,14.7
2019-05-23T06:20:28.863Z,14.8
2019-05-23T06:21:30.259Z,14.9
2019-05-23T06:22:31.652Z,14.9
2019-05-23T06:23:33.056Z,15.0
2019-05-23T06:24:44.516Z,15.0
2019-05-23T06:25:35.879Z,15.1
2019-05-23T06:26:37.290Z,15.1
2019-05-23T06:27:38.705Z,15.1
2019-05-23T06:28:40.077Z,15.1
2019-05-23T06:29:41.474Z,15.2
2019-05-23T06:30:42.868Z,15.3
2019-05-23T06:31:44.262Z,15.3
2019-05-23T06:32:45.685Z,15.4
2019-05-23T06:33:47.076Z,15.4
2019-05-23T06:34:48.467Z,15.4
2019-05-23T06:35:49.860Z,15.5
2019-05-23T06:36:51.255Z,15.5
2019-05-23T06:37:52.713Z,15.6
2019-05-23T06:38:54.008Z,15.6
2019-05-23T06:39:55.416Z,15.7
2019-05-23T06:40:57.493Z,15.8
2019-05-23T06:41:58.865Z,15.8
2019-05-23T06:43:00.250Z,15.8
2019-05-23T06:44:01.655Z,15.9
2019-05-23T06:45:03.047Z,16.0
2019-05-23T06:46:04.430Z,16.0
2019-05-23T06:47:05.834Z,16.1
2019-05-23T06:48:07.224Z,16.0
2019-05-23T06:49:08.598Z,16.1
2019-05-23T06:50:09.983Z,16.1
2019-05-23T06:51:11.369Z,16.2
2019-05-23T06:52:12.756Z,16.2
2019-05-23T06:53:14.159Z,16.3
2019-05-23T06:54:15.531Z,16.3
2019-05-23T06:55:16.955Z,16.3
2019-05-23T06:56:18.359Z,16.3
2019-05-23T06:57:19.742Z,16.4
2019-05-23T06:58:21.372Z,16.5
2019-05-23T06:59:22.604Z,16.5
2019-05-23T07:00:23.990Z,16.6
2019-05-23T07:01:25.376Z,16.7
2019-05-23T07:02:30.896Z,16.7
2019-05-23T07:03:41.206Z,16.8
2019-05-23T07:04:29.460Z,16.8
2019-05-23T07:05:30.860Z,16.9
2019-05-23T07:06:32.284Z,16.9
2019-05-23T07:07:33.694Z,17.0
2019-05-23T07:08:35.122Z,17.0
2019-05-23T07:09:36.643Z,17.0
2019-05-23T07:10:38.098Z,17.1
2019-05-23T07:11:39.487Z,17.3
2019-05-23T07:12:40.895Z,17.3
2019-05-23T07:13:42.281Z,17.4
2019-05-23T07:14:43.677Z,17.4
2019-05-23T07:15:45.065Z,17.5
2019-05-23T07:16:50.082Z,17.6
2019-05-23T07:17:47.799Z,17.6
2019-05-23T07:18:49.188Z,17.6
2019-05-23T07:19:50.575Z,17.7
2019-05-23T07:20:51.961Z,17.8
2019-05-23T07:21:53.348Z,17.8
2019-05-23T07:22:54.747Z,17.9
2019-05-23T07:23:56.180Z,17.9
2019-05-23T07:24:58.861Z,17.9
2019-05-23T07:25:58.874Z,18.0
2019-05-23T07:27:00.264Z,18.1
2019-05-23T07:28:01.726Z,18.1
2019-05-23T07:29:02.999Z,18.2
2019-05-23T07:30:04.393Z,18.2
2019-05-23T07:31:05.777Z,18.3
2019-05-23T07:32:07.164Z,18.4
2019-05-23T07:33:08.549Z,18.5
2019-05-23T07:34:09.936Z,18.6
2019-05-23T07:35:11.349Z,18.6
2019-05-23T07:36:12.738Z,18.7
2019-05-23T07:37:14.125Z,18.7
2019-05-23T07:38:15.509Z,18.9
2019-05-23T07:39:16.895Z,18.9
2019-05-23T07:40:18.291Z,19.0
2019-05-23T07:41:19.671Z,19.1
2019-05-23T07:42:21.087Z,19.0
2019-05-23T07:43:22.488Z,19.1
2019-05-23T07:44:23.921Z,19.1
2019-05-23T07:45:25.302Z,19.2
2019-05-23T07:46:26.692Z,19.2
2019-05-23T07:47:28.092Z,19.3
2019-05-23T07:48:29.467Z,19.3
2019-05-23T07:49:30.857Z,19.4
2019-05-23T07:50:32.246Z,19.5
2019-05-23T07:51:33.633Z,19.5
2019-05-23T07:52:35.019Z,19.6
2019-05-23T07:53:36.407Z,19.7
2019-05-23T07:54:37.811Z,19.8
2019-05-23T07:55:39.186Z,19.9
2019-05-23T07:56:40.570Z,19.9
2019-05-23T07:57:41.965Z,20.0
2019-05-23T07:58:43.382Z,20.0
2019-05-23T07:59:44.768Z,20.1
2019-05-23T08:00:46.156Z,20.1
2019-05-23T08:01:47.650Z,20.2
2019-05-23T08:02:49.059Z,20.3
2019-05-23T08:03:50.442Z,20.3
2019-05-23T08:04:51.835Z,20.3
2019-05-23T08:05:53.227Z,20.4
2019-05-23T08:06:54.609Z,20.3
2019-05-23T08:07:56.040Z,20.4
2019-05-23T08:08:57.394Z,20.5
2019-05-23T08:09:58.785Z,20.5
2019-05-23T08:11:00.175Z,20.6
2019-05-23T08:12:01.584Z,20.7
2019-05-23T08:13:03.038Z,20.6
2019-05-23T08:14:04.384Z,20.6
2019-05-23T08:15:05.769Z,20.6
2019-05-23T08:16:07.161Z,20.8
2019-05-23T08:17:08.545Z,20.7
2019-05-23T08:18:09.938Z,20.8
2019-05-23T08:19:11.358Z,20.9
2019-05-23T08:20:12.717Z,20.9
2019-05-23T08:21:14.130Z,20.9
2019-05-23T08:22:15.522Z,20.9
2019-05-23T08:23:16.912Z,21.0
2019-05-23T08:24:18.299Z,21.0
2019-05-23T08:25:19.692Z,21.0
2019-05-23T08:26:21.080Z,21.2
2019-05-23T08:27:22.478Z,21.2
2019-05-23T08:28:23.860Z,21.3
2019-05-23T08:29:26.676Z,21.5
2019-05-23T08:30:26.602Z,21.5
2019-05-23T08:31:27.994Z,21.6
2019-05-23T08:32:29.478Z,21.5
2019-05-23T08:33:30.817Z,21.5
2019-05-23T08:34:41.713Z,21.5
2019-05-23T08:35:33.556Z,21.6
2019-05-23T08:36:34.948Z,21.6
2019-05-23T08:37:36.335Z,21.6
2019-05-23T08:38:37.727Z,21.7
2019-05-23T08:39:39.113Z,21.7
2019-05-23T08:40:40.512Z,21.8
2019-05-23T08:41:41.923Z,22.0
2019-05-23T08:42:43.320Z,21.9
2019-05-23T08:43:44.709Z,22.0
2019-05-23T08:44:46.103Z,22.0
2019-05-23T08:45:47.498Z,22.1
2019-05-23T08:46:48.942Z,22.2
2019-05-23T08:47:50.331Z,22.4
2019-05-23T08:48:51.725Z,22.4
2019-05-23T08:49:53.116Z,22.4
2019-05-23T08:50:54.504Z,22.4
2019-05-23T08:51:55.911Z,22.6
2019-05-23T08:52:57.297Z,22.7
2019-05-23T08:53:58.864Z,22.7
2019-05-23T08:55:00.362Z,22.7
2019-05-23T08:56:01.824Z,22.8
2019-05-23T08:57:03.111Z,22.9
2019-05-23T08:58:04.529Z,22.8
2019-05-23T08:59:05.893Z,22.8
2019-05-23T09:00:07.283Z,22.9
2019-05-23T09:01:08.674Z,22.8
2019-05-23T09:02:10.066Z,22.7
2019-05-23T09:03:11.457Z,22.9
2019-05-23T09:04:12.844Z,22.8
2019-05-23T09:05:14.230Z,22.9
2019-05-23T09:06:15.620Z,22.8
2019-05-23T09:07:17.010Z,22.9
2019-05-23T09:08:18.401Z,22.8
2019-05-23T09:09:28.981Z,23.0
2019-05-23T09:10:21.141Z,22.9
2019-05-23T09:11:22.533Z,22.8
2019-05-23T09:12:23.920Z,22.9
2019-05-23T09:13:25.311Z,22.7
2019-05-23T09:14:26.701Z,22.7
2019-05-23T09:15:28.090Z,22.7
2019-05-23T09:16:32.977Z,22.7
2019-05-23T09:17:30.837Z,22.7
2019-05-23T09:18:32.224Z,22.6
2019-05-23T09:19:33.612Z,22.6
2019-05-23T09:20:35.014Z,22.5
2019-05-23T09:21:36.425Z,22.5
2019-05-23T09:22:37.819Z,22.5
2019-05-23T09:23:39.226Z,22.5
2019-05-23T09:24:40.633Z,22.5
2019-05-23T09:25:42.031Z,22.5
2019-05-23T09:26:43.490Z,22.6
2019-05-23T09:27:44.825Z,22.6
2019-05-23T09:28:46.227Z,22.8
2019-05-23T09:29:47.634Z,22.8
2019-05-23T09:30:49.063Z,22.9
2019-05-23T09:31:50.459Z,23.0
2019-05-23T09:32:51.859Z,22.8
2019-05-23T09:33:53.309Z,22.7
2019-05-23T09:34:54.711Z,22.8
2019-05-23T09:35:56.145Z,22.7
2019-05-23T09:37:00.214Z,22.7
2019-05-23T09:37:58.957Z,22.7
2019-05-23T09:39:00.380Z,22.8
2019-05-23T09:40:01.756Z,22.9
2019-05-23T09:41:03.185Z,23.0
2019-05-23T09:42:04.587Z,23.1
2019-05-23T09:43:06.043Z,23.1
2019-05-23T09:44:07.469Z,23.2
2019-05-23T09:45:09.026Z,23.5
2019-05-23T09:46:10.470Z,23.6
2019-05-23T09:47:11.867Z,23.7
2019-05-23T09:48:13.276Z,23.8
2019-05-23T09:49:14.680Z,23.8
2019-05-23T09:50:16.132Z,23.8
2019-05-23T09:51:17.532Z,23.8
2019-05-23T09:52:18.947Z,23.7
2019-05-23T09:53:20.345Z,23.7
2019-05-23T09:54:21.740Z,23.5
2019-05-23T09:55:23.138Z,23.5
2019-05-23T09:56:24.624Z,23.5
2019-05-23T09:57:25.920Z,23.5
2019-05-23T09:58:27.319Z,23.6
2019-05-23T09:59:28.735Z,23.6
2019-05-23T10:00:30.149Z,23.6
2019-05-23T10:01:31.555Z,23.7
2019-05-23T10:02:32.947Z,23.8
2019-05-23T10:03:34.345Z,23.8
2019-05-23T10:04:35.790Z,23.9
2019-05-23T10:05:43.465Z,23.9
2019-05-23T10:06:38.704Z,23.9
2019-05-23T10:07:40.098Z,24.0
2019-05-23T10:08:41.506Z,24.0
2019-05-23T10:09:42.940Z,24.0
2019-05-23T10:10:44.390Z,23.8
2019-05-23T10:11:45.798Z,23.7
2019-05-23T10:12:47.194Z,23.8
2019-05-23T10:13:48.595Z,23.7
2019-05-23T10:14:50.002Z,23.7
2019-05-23T10:15:51.414Z,23.7
2019-05-23T10:16:52.826Z,23.8
2019-05-23T10:17:54.226Z,24.0
2019-05-23T10:18:55.627Z,24.2
2019-05-23T10:19:57.026Z,24.4
2019-05-23T10:20:58.426Z,24.5
2019-05-23T10:21:59.827Z,24.3
2019-05-23T10:23:01.225Z,24.2
2019-05-23T10:24:02.627Z,24.1
2019-05-23T10:25:04.030Z,23.8
2019-05-23T10:26:05.514Z,23.8
2019-05-23T10:27:06.797Z,23.9
2019-05-23T10:28:08.201Z,24.0
2019-05-23T10:29:09.613Z,23.9
2019-05-23T10:30:11.005Z,24.1
2019-05-23T10:31:12.406Z,24.2
2019-05-23T10:32:13.804Z,24.3
2019-05-23T10:33:15.205Z,24.6
2019-05-23T10:34:16.606Z,24.6
2019-05-23T10:35:18.134Z,24.7
2019-05-23T10:36:19.648Z,24.9
2019-05-23T10:37:21.048Z,25.0
2019-05-23T10:38:22.446Z,25.1
2019-05-23T10:39:23.849Z,25.0
2019-05-23T10:40:25.241Z,25.3
2019-05-23T10:41:26.642Z,25.3
2019-05-23T10:42:28.051Z,25.5
2019-05-23T10:43:29.479Z,25.4
2019-05-23T10:44:30.845Z,25.4
2019-05-23T10:45:32.247Z,25.3
2019-05-23T10:46:33.650Z,25.3
2019-05-23T10:47:35.152Z,25.2
2019-05-23T10:48:36.410Z,25.1
2019-05-23T10:49:37.819Z,25.1
2019-05-23T10:50:44.785Z,25.1
2019-05-23T10:51:40.581Z,25.1
2019-05-23T10:52:41.990Z,25.1
2019-05-23T10:53:43.380Z,25.2
2019-05-23T10:54:44.780Z,25.3
2019-05-23T10:55:46.180Z,25.4
2019-05-23T10:56:47.586Z,25.3
2019-05-23T10:57:48.983Z,25.3
2019-05-23T10:58:50.379Z,25.4
2019-05-23T10:59:51.794Z,25.4
2019-05-23T11:00:53.197Z,25.4
2019-05-23T11:01:54.669Z,25.6
2019-05-23T11:02:56.124Z,25.7
2019-05-23T11:03:57.477Z,25.6
2019-05-23T11:04:58.927Z,25.6
2019-05-23T11:06:13.339Z,25.4
2019-05-23T11:07:01.671Z,25.3
2019-05-23T11:08:03.070Z,25.3
2019-05-23T11:09:04.478Z,25.2
2019-05-23T11:10:05.882Z,25.3
2019-05-23T11:11:07.348Z,25.3
2019-05-23T11:12:08.977Z,25.4
2019-05-23T11:13:10.209Z,25.7
2019-05-23T11:14:11.619Z,25.7
2019-05-23T11:15:13.051Z,25.8
2019-05-23T11:16:14.425Z,26.0
2019-05-23T11:17:15.827Z,26.0
2019-05-23T11:18:17.231Z,26.0
2019-05-23T11:19:18.631Z,26.1
2019-05-23T11:20:20.063Z,26.0
2019-05-23T11:21:21.574Z,26.0
2019-05-23T11:22:22.940Z,26.0
2019-05-23T11:23:24.341Z,26.1
2019-05-23T11:24:25.748Z,26.1
2019-05-23T11:25:27.148Z,26.3
2019-05-23T11:26:28.651Z,26.4
2019-05-23T11:27:30.094Z,26.5
2019-05-23T11:28:31.496Z,26.6
2019-05-23T11:29:32.915Z,26.7
2019-05-23T11:30:34.317Z,26.8
2019-05-23T11:31:35.725Z,26.8
2019-05-23T11:32:37.135Z,26.8
2019-05-23T11:33:38.534Z,26.9
2019-05-23T11:34:39.931Z,26.9
2019-05-23T11:35:41.343Z,27.0
2019-05-23T11:36:42.743Z,27.0
2019-05-23T11:37:44.168Z,27.1
2019-05-23T11:38:45.659Z,27.2
2019-05-23T11:39:49.945Z,27.2
2019-05-23T11:40:48.464Z,27.2
2019-05-23T11:41:49.861Z,26.9
2019-05-23T11:42:52.768Z,26.8
2019-05-23T11:43:52.661Z,26.7
2019-05-23T11:44:54.058Z,26.6
2019-05-23T11:45:55.482Z,26.7
2019-05-23T11:46:56.886Z,26.8
2019-05-23T11:47:58.288Z,26.8
2019-05-23T11:48:59.690Z,26.8
2019-05-23T11:50:01.102Z,26.9
2019-05-23T11:51:02.512Z,27.0
2019-05-23T11:52:03.917Z,27.0
2019-05-23T11:53:05.319Z,27.0
2019-05-23T11:54:08.943Z,27.2
2019-05-23T11:55:08.088Z,27.0
2019-05-23T11:56:09.535Z,26.9
2019-05-23T11:57:11.091Z,27.0
2019-05-23T11:58:12.400Z,27.1
2019-05-23T11:59:13.794Z,27.1
2019-05-23T12:00:15.195Z,27.0
2019-05-23T12:01:20.971Z,26.9
2019-05-23T12:02:18.040Z,27.0
2019-05-23T12:03:19.452Z,26.9
2019-05-23T12:04:20.854Z,27.1
2019-05-23T12:05:22.255Z,27.2
2019-05-23T12:06:26.054Z,27.3
2019-05-23T12:07:25.019Z,27.5
2019-05-23T12:08:26.423Z,27.5
2019-05-23T12:09:27.837Z,27.4
2019-05-23T12:10:29.225Z,27.5
2019-05-23T12:11:30.627Z,27.4
2019-05-23T12:12:32.031Z,27.4
2019-05-23T12:13:33.432Z,27.3
2019-05-23T12:14:34.911Z,27.3
2019-05-23T12:15:36.309Z,27.2
2019-05-23T12:16:37.856Z,27.5
2019-05-23T12:17:39.316Z,27.6
2019-05-23T12:18:40.715Z,27.7
2019-05-23T12:19:42.329Z,27.7
2019-05-23T12:20:43.594Z,27.8
2019-05-23T12:21:45.004Z,27.8
2019-05-23T12:22:46.512Z,27.7
2019-05-23T12:23:47.788Z,27.8
2019-05-23T12:24:49.195Z,27.8
2019-05-23T12:25:50.593Z,27.8
2019-05-23T12:26:51.997Z,27.6
2019-05-23T12:27:53.403Z,27.7
2019-05-23T12:28:54.815Z,27.7
2019-05-23T12:29:56.216Z,27.8
2019-05-23T12:30:57.620Z,27.9
2019-05-23T12:31:59.022Z,27.9
2019-05-23T12:33:00.458Z,28.1
2019-05-23T12:34:01.887Z,28.1
2019-05-23T12:35:11.084Z,27.9
2019-05-23T12:36:04.912Z,27.7
2019-05-23T12:37:20.780Z,27.6
2019-05-23T12:38:07.840Z,27.3
2019-05-23T12:39:09.241Z,27.3
2019-05-23T12:40:10.656Z,27.4
2019-05-23T12:41:12.056Z,27.5
2019-05-23T12:42:13.498Z,27.4
2019-05-23T12:43:14.897Z,27.5
2019-05-23T12:44:17.815Z,27.7
2019-05-23T12:45:17.775Z,27.9
2019-05-23T12:46:19.151Z,27.9
2019-05-23T12:47:20.617Z,28.0
2019-05-23T12:48:22.017Z,28.2
2019-05-23T12:49:23.418Z,28.2
2019-05-23T12:50:24.850Z,28.3
2019-05-23T12:51:26.299Z,28.5
2019-05-23T12:52:27.681Z,28.4
2019-05-23T12:53:29.083Z,28.6
2019-05-23T12:54:30.488Z,28.7
2019-05-23T12:55:31.901Z,28.7
2019-05-23T12:56:33.301Z,28.7
2019-05-23T12:57:34.706Z,28.7
2019-05-23T12:58:36.128Z,28.4
2019-05-23T12:59:37.530Z,28.3
2019-05-23T13:00:38.938Z,28.2
2019-05-23T13:01:40.339Z,28.2
2019-05-23T13:02:41.739Z,28.2
2019-05-23T13:03:43.188Z,28.1
2019-05-23T13:04:44.818Z,28.2
2019-05-23T13:05:46.279Z,28.4
2019-05-23T13:06:47.767Z,28.3
2019-05-23T13:07:49.209Z,28.0
2019-05-23T13:08:50.523Z,28.1
2019-05-23T13:09:51.921Z,28.1
2019-05-23T13:10:53.323Z,28.2
2019-05-23T13:11:54.725Z,28.4
2019-05-23T13:12:56.141Z,28.4
2019-05-23T13:13:57.545Z,28.4
2019-05-23T13:14:59.190Z,28.6
2019-05-23T13:16:00.303Z,28.7
2019-05-23T13:17:01.841Z,28.7
2019-05-23T13:18:03.081Z,28.9
2019-05-23T13:19:04.499Z,29.0
2019-05-23T13:20:05.892Z,29.1
2019-05-23T13:21:07.294Z,29.0
2019-05-23T13:22:08.696Z,28.9
2019-05-23T13:23:19.566Z,29.0
2019-05-23T13:24:11.575Z,29.2
2019-05-23T13:25:12.981Z,29.2
2019-05-23T13:26:14.378Z,29.2
2019-05-23T13:27:15.781Z,29.3
2019-05-23T13:28:17.210Z,29.3
2019-05-23T13:29:18.606Z,29.5
2019-05-23T13:30:20.033Z,29.5
2019-05-23T13:31:21.415Z,29.6
2019-05-23T13:32:22.812Z,29.4
2019-05-23T13:33:24.495Z,29.3
2019-05-23T13:34:25.873Z,29.2
2019-05-23T13:35:27.274Z,29.2
2019-05-23T13:36:28.705Z,29.2
2019-05-23T13:37:30.164Z,29.3